createdAt,value
2022-11-03T00:01:24.018Z,4.05
2022-11-03T00:06:26.589Z,4.05
2022-11-03T00:11:32.806Z,4.07
2022-11-03T00:16:35.214Z,4.50
2022-11-03T00:21:37.971Z,4.68
2022-11-03T00:26:41.897Z,3.92
2022-11-03T00:31:45.354Z,3.95
2022-11-03T00:41:51.743Z,3.75
2022-11-03T00:46:54.186Z,4.03
2022-11-03T00:51:56.592Z,3.30
2022-11-03T00:57:00.422Z,3.60
2022-11-03T01:02:03.041Z,3.72
2022-11-03T01:07:06.374Z,3.47
2022-11-03T01:12:11.832Z,3.40
2022-11-03T01:17:15.661Z,4.22
2022-11-03T01:22:18.715Z,3.90
2022-11-03T01:27:23.090Z,3.15
2022-11-03T01:32:25.731Z,3.83
2022-11-03T01:37:28.206Z,3.33
2022-11-03T01:42:32.045Z,3.33
2022-11-03T01:47:36.072Z,3.70
2022-11-03T01:52:41.269Z,4.05
2022-11-03T01:57:47.326Z,4.00
2022-11-03T02:02:50.283Z,3.60
2022-11-03T02:07:55.570Z,3.42
2022-11-03T02:12:59.618Z,4.00
2022-11-03T02:18:03.017Z,3.20
2022-11-03T02:28:10.457Z,3.90
2022-11-03T02:33:18.685Z,3.35
2022-11-03T02:38:25.806Z,3.67
2022-11-03T02:43:30.234Z,3.35
2022-11-03T02:48:32.921Z,3.45
2022-11-03T02:53:38.144Z,3.57
2022-11-03T02:58:45.937Z,3.55
2022-11-03T03:03:50.089Z,3.47
2022-11-03T03:08:54.794Z,3.38
2022-11-03T03:13:58.674Z,3.20
2022-11-03T03:19:04.941Z,3.72
2022-11-03T03:24:09.439Z,3.33
2022-11-03T03:29:16.554Z,3.33
2022-11-03T03:34:36.585Z,4.05
2022-11-03T03:39:41.461Z,3.53
2022-11-03T03:44:46.006Z,3.28
2022-11-03T03:49:48.764Z,4.15
2022-11-03T03:54:51.445Z,3.43
2022-11-03T03:59:55.864Z,3.47
2022-11-03T04:05:00.161Z,3.78
2022-11-03T04:10:02.578Z,3.78
2022-11-03T04:15:24.705Z,4.20
2022-11-03T04:20:44.998Z,3.47
2022-11-03T04:25:48.996Z,4.07
2022-11-03T04:30:56.073Z,4.07
2022-11-03T04:36:01.449Z,4.10
2022-11-03T04:41:08.067Z,4.37
2022-11-03T04:46:12.969Z,4.15
2022-11-03T04:51:17.240Z,3.80
2022-11-03T04:56:21.829Z,4.13
2022-11-03T05:01:26.064Z,4.32
2022-11-03T05:06:29.584Z,4.97
2022-11-03T05:16:35.916Z,4.30
2022-11-03T05:21:39.393Z,3.90
2022-11-03T05:31:47.679Z,5.70
2022-11-03T05:36:50.121Z,4.03
2022-11-03T05:41:53.298Z,3.75
2022-11-03T05:46:58.098Z,4.70
2022-11-03T05:52:01.460Z,4.43
2022-11-03T05:57:08.428Z,3.92
2022-11-03T06:02:21.063Z,4.10
2022-11-03T06:07:24.686Z,4.70
2022-11-03T06:12:27.224Z,4.70
2022-11-03T06:17:31.003Z,3.87
2022-11-03T06:22:39.201Z,4.97
2022-11-03T06:27:42.091Z,3.95
2022-11-03T06:32:45.922Z,4.07
2022-11-03T06:37:48.451Z,4.03
2022-11-03T06:42:50.861Z,3.77
2022-11-03T06:47:54.947Z,3.88
2022-11-03T06:52:58.052Z,4.30
2022-11-03T06:58:01.488Z,4.82
2022-11-03T07:08:14.368Z,4.20
2022-11-03T07:13:19.310Z,4.63
2022-11-03T07:18:23.819Z,4.90
2022-11-03T07:23:32.063Z,5.40
2022-11-03T07:28:36.247Z,4.68
2022-11-03T07:33:38.705Z,4.78
2022-11-03T07:38:43.321Z,5.60
2022-11-03T07:43:50.832Z,4.13
2022-11-03T07:48:55.079Z,4.68
2022-11-03T07:54:02.994Z,4.18
2022-11-03T07:59:07.185Z,4.68
2022-11-03T08:04:13.715Z,3.95
2022-11-03T08:09:19.054Z,3.90
2022-11-03T08:14:21.512Z,3.88
2022-11-03T08:19:23.956Z,4.10
2022-11-03T08:24:27.880Z,4.60
2022-11-03T08:29:30.449Z,3.85
2022-11-03T08:34:32.931Z,4.20
2022-11-03T08:39:37.255Z,3.83
2022-11-03T08:44:39.761Z,3.75
2022-11-03T08:49:42.173Z,3.93
2022-11-03T08:54:46.260Z,3.77
2022-11-03T08:59:49.169Z,3.80
2022-11-03T09:04:51.678Z,3.00
2022-11-03T09:15:18.489Z,3.40
2022-11-03T09:20:21.515Z,2.75
2022-11-03T09:25:25.404Z,3.42
2022-11-03T09:30:28.864Z,3.47
2022-11-03T09:35:31.354Z,3.83
2022-11-03T09:40:35.737Z,2.93
2022-11-03T09:45:38.960Z,2.85
2022-11-03T09:50:41.962Z,3.25
2022-11-03T09:55:46.773Z,3.42
2022-11-03T10:00:49.301Z,2.60
2022-11-03T10:05:51.821Z,2.67
2022-11-03T10:10:55.933Z,3.13
2022-11-03T10:16:00.004Z,2.03
2022-11-03T10:21:04.889Z,2.42
2022-11-03T10:26:12.819Z,2.05
2022-11-03T10:31:21.118Z,2.30
2022-11-03T10:36:24.589Z,2.22
2022-11-03T10:41:28.988Z,2.20
2022-11-03T10:51:54.571Z,2.58
2022-11-03T10:56:58.397Z,2.38
2022-11-03T11:02:02.039Z,2.42
2022-11-03T11:07:04.566Z,2.75
2022-11-03T11:12:16.542Z,2.60
2022-11-03T11:17:34.436Z,2.25
2022-11-03T11:22:36.961Z,3.67
2022-11-03T11:28:03.380Z,2.70
2022-11-03T11:33:16.008Z,2.83
2022-11-03T11:38:36.778Z,3.33
2022-11-03T11:43:39.208Z,3.00
2022-11-03T11:48:43.171Z,2.70
2022-11-03T11:53:50.937Z,3.28
2022-11-03T11:58:57.120Z,3.30
2022-11-03T12:04:02.692Z,2.50
2022-11-03T12:09:06.023Z,2.75
2022-11-03T12:19:30.592Z,2.40
2022-11-03T12:24:38.961Z,2.05
2022-11-03T12:29:41.407Z,2.42
2022-11-03T12:34:43.946Z,2.20
2022-11-03T12:39:48.026Z,2.17
2022-11-03T12:44:50.630Z,2.60
2022-11-03T12:49:53.438Z,2.55
2022-11-03T12:54:57.224Z,2.15
2022-11-03T12:59:59.944Z,1.67
2022-11-03T13:05:02.375Z,1.58
2022-11-03T13:10:06.570Z,1.80
2022-11-03T13:15:10.105Z,1.60
2022-11-03T13:20:14.965Z,2.08
2022-11-03T13:25:18.899Z,1.77
2022-11-03T13:30:21.747Z,1.60
2022-11-03T13:35:24.242Z,2.92
2022-11-03T13:40:56.235Z,1.77
2022-11-03T13:45:50.471Z,1.35
2022-11-03T13:50:53.742Z,1.50
2022-11-03T13:56:03.073Z,1.38
2022-11-03T14:01:10.196Z,1.80
2022-11-03T14:06:12.644Z,1.42
2022-11-03T14:11:34.033Z,1.50
2022-11-03T14:16:36.546Z,1.20
2022-11-03T14:21:42.611Z,1.48
2022-11-03T14:26:46.521Z,1.25
2022-11-03T14:31:48.993Z,1.33
2022-11-03T14:36:51.504Z,1.60
2022-11-03T14:42:06.626Z,1.75
2022-11-03T14:47:10.219Z,1.40
2022-11-03T14:52:13.041Z,1.58
2022-11-03T14:57:21.393Z,1.05
2022-11-03T15:02:24.058Z,1.50
2022-11-03T15:07:26.650Z,2.05
2022-11-03T15:12:31.456Z,1.77
2022-11-03T15:17:33.905Z,2.10
2022-11-03T15:28:00.744Z,1.85
2022-11-03T15:33:03.365Z,2.15
2022-11-03T15:38:06.117Z,2.03
2022-11-03T15:43:10.178Z,2.60
2022-11-03T15:48:13.049Z,2.40
2022-11-03T15:53:15.949Z,2.80
2022-11-03T15:58:19.931Z,2.60
2022-11-03T16:03:22.434Z,2.70
2022-11-03T16:08:24.939Z,3.10
2022-11-03T16:13:28.708Z,3.87
2022-11-03T16:18:31.271Z,3.28
2022-11-03T16:23:33.681Z,4.40
2022-11-03T16:28:37.643Z,4.00
2022-11-03T16:33:40.107Z,4.53
2022-11-03T16:38:42.615Z,4.23
2022-11-03T16:43:48.059Z,4.47
2022-11-03T16:48:50.533Z,6.28
2022-11-03T16:53:54.785Z,4.70
2022-11-03T16:58:58.873Z,4.97
2022-11-03T17:04:03.064Z,5.03
2022-11-03T17:09:06.750Z,6.85
2022-11-03T17:14:13.415Z,5.55
2022-11-03T17:19:16.197Z,6.30
2022-11-03T17:24:18.929Z,7.03
2022-11-03T17:29:23.846Z,6.33
2022-11-03T17:34:26.487Z,5.78
2022-11-03T17:39:30.383Z,5.80
2022-11-03T17:44:34.537Z,5.75
2022-11-03T17:49:39.397Z,6.60
2022-11-03T17:54:42.420Z,6.20
2022-11-03T17:59:48.519Z,7.13
2022-11-03T18:04:51.382Z,6.95
2022-11-03T18:09:54.897Z,6.82
2022-11-03T18:20:04.219Z,8.40
2022-11-03T18:25:07.487Z,7.80
2022-11-03T18:30:10.926Z,8.68
2022-11-03T18:40:17.424Z,8.30
2022-11-03T18:45:20.126Z,10.18
2022-11-03T18:50:22.661Z,8.97
2022-11-03T18:55:27.610Z,8.77
2022-11-03T19:00:32.411Z,10.18
2022-11-03T19:05:35.256Z,10.20
2022-11-03T19:10:40.888Z,8.43
2022-11-03T19:15:46.300Z,9.73
2022-11-03T19:20:48.869Z,9.60
2022-11-03T19:25:54.454Z,9.53
2022-11-03T19:30:58.104Z,9.90
2022-11-03T19:36:00.722Z,9.88
2022-11-03T19:41:22.005Z,11.97
2022-11-03T19:46:24.740Z,12.43
2022-11-03T19:51:29.682Z,10.40
2022-11-03T19:56:33.645Z,11.15
2022-11-03T20:01:36.287Z,9.75
2022-11-03T20:06:40.795Z,11.60
2022-11-03T20:11:45.625Z,10.60
2022-11-03T20:16:50.140Z,11.95
2022-11-03T20:21:55.539Z,10.65
2022-11-03T20:27:01.911Z,12.07
2022-11-03T20:32:05.349Z,10.40
2022-11-03T20:37:15.589Z,9.68
2022-11-03T20:42:22.328Z,9.60
2022-11-03T20:47:25.001Z,10.13
2022-11-03T20:52:28.043Z,11.67
2022-11-03T20:57:31.896Z,10.80
2022-11-03T21:02:34.552Z,12.13
2022-11-03T21:07:39.586Z,12.73
2022-11-03T21:12:43.717Z,13.02
2022-11-03T21:18:03.596Z,13.55
2022-11-03T21:23:15.468Z,13.00
2022-11-03T21:28:21.414Z,11.77
2022-11-03T21:33:25.087Z,12.10
2022-11-03T21:38:27.564Z,10.15
2022-11-03T21:43:48.943Z,10.23
2022-11-03T21:49:06.272Z,9.18
2022-11-03T21:54:08.857Z,9.18
2022-11-03T21:59:12.779Z,8.60
2022-11-03T22:04:15.218Z,7.97
2022-11-03T22:09:18.000Z,8.32
2022-11-03T22:14:21.849Z,7.70
2022-11-03T22:19:41.745Z,8.65
2022-11-03T22:25:01.600Z,8.63
2022-11-03T22:30:23.207Z,9.02
2022-11-03T22:35:43.647Z,10.70
2022-11-03T22:41:13.352Z,11.70
2022-11-03T22:46:19.449Z,12.80
2022-11-03T22:51:21.954Z,13.60
2022-11-03T22:56:25.146Z,11.43
2022-11-03T23:01:29.384Z,9.85
2022-11-03T23:06:35.391Z,8.43
2022-11-03T23:11:37.954Z,6.78
2022-11-03T23:16:42.422Z,7.80
2022-11-03T23:21:45.275Z,6.05
2022-11-03T23:26:47.899Z,5.13
2022-11-03T23:31:52.489Z,5.27
2022-11-03T23:36:55.026Z,4.72
2022-11-03T23:41:57.471Z,5.53
2022-11-03T23:47:18.742Z,5.05
2022-11-03T23:52:21.556Z,4.63
2022-11-03T23:57:41.385Z,4.30
